sensor_id;sensor_type;location;lat;lon;timestamp;pressure;altitude;pressure_sealevel;temperature;humidity
8699;BME280;4386;51.236;6.742;2023-05-24T00:00:40;96780.25;;;16.42;80.88
8699;BME280;4386;51.236;6.742;2023-05-24T00:01:44;96780.50;;;16.41;80.88
8699;BME280;4386;51.236;6.742;2023-05-24T00:03:06;96773.22;;;16.36;80.85
8699;BME280;4386;51.236;6.742;2023-05-24T00:04:10;96779.06;;;16.33;81.03
8699;BME280;4386;51.236;6.742;2023-05-24T00:05:13;96779.66;;;16.35;81.10
8699;BME280;4386;51.236;6.742;2023-05-24T00:06:19;96781.50;;;16.35;80.98
8699;BME280;4386;51.236;6.742;2023-05-24T00:07:22;96784.19;;;16.35;81.16
8699;BME280;4386;51.236;6.742;2023-05-24T00:08:26;96774.53;;;16.34;81.12
8699;BME280;4386;51.236;6.742;2023-05-24T00:09:47;96770.81;;;16.35;81.15
8699;BME280;4386;51.236;6.742;2023-05-24T00:10:51;96774.03;;;16.37;81.17
8699;BME280;4386;51.236;6.742;2023-05-24T00:11:53;96773.53;;;16.40;80.80
8699;BME280;4386;51.236;6.742;2023-05-24T00:13:08;96770.84;;;16.40;81.12
8699;BME280;4386;51.236;6.742;2023-05-24T00:14:11;96773.00;;;16.43;80.91
8699;BME280;4386;51.236;6.742;2023-05-24T00:15:33;96774.63;;;16.44;80.72
8699;BME280;4386;51.236;6.742;2023-05-24T00:16:38;96772.50;;;16.46;80.66
8699;BME280;4386;51.236;6.742;2023-05-24T00:17:42;96779.47;;;16.47;80.75
8699;BME280;4386;51.236;6.742;2023-05-24T00:18:45;96783.50;;;16.49;80.80
8699;BME280;4386;51.236;6.742;2023-05-24T00:19:49;96777.91;;;16.51;80.68
8699;BME280;4386;51.236;6.742;2023-05-24T00:20:53;96780.59;;;16.51;80.64
8699;BME280;4386;51.236;6.742;2023-05-24T00:21:59;96771.03;;;16.55;80.32
8699;BME280;4386;51.236;6.742;2023-05-24T00:23:20;96767.75;;;16.53;80.31
8699;BME280;4386;51.236;6.742;2023-05-24T00:24:23;96776.38;;;16.55;80.21
8699;BME280;4386;51.236;6.742;2023-05-24T00:25:27;96767.75;;;16.53;80.26
8699;BME280;4386;51.236;6.742;2023-05-24T00:26:49;96776.28;;;16.50;80.34
8699;BME280;4386;51.236;6.742;2023-05-24T00:28:09;96767.72;;;16.48;80.38
8699;BME280;4386;51.236;6.742;2023-05-24T00:29:13;96771.44;;;16.47;80.46
8699;BME280;4386;51.236;6.742;2023-05-24T00:30:15;96774.94;;;16.47;80.39
8699;BME280;4386;51.236;6.742;2023-05-24T00:31:19;96774.13;;;16.47;80.54
8699;BME280;4386;51.236;6.742;2023-05-24T00:32:22;96769.81;;;16.46;80.52
8699;BME280;4386;51.236;6.742;2023-05-24T00:33:26;96771.72;;;16.45;80.40
8699;BME280;4386;51.236;6.742;2023-05-24T00:34:29;96769.28;;;16.44;80.23
8699;BME280;4386;51.236;6.742;2023-05-24T00:35:32;96771.41;;;16.42;80.36
8699;BME280;4386;51.236;6.742;2023-05-24T00:36:35;96772.47;;;16.41;80.39
8699;BME280;4386;51.236;6.742;2023-05-24T00:37:40;96773.53;;;16.40;80.51
8699;BME280;4386;51.236;6.742;2023-05-24T00:38:46;96760.44;;;16.38;80.35
8699;BME280;4386;51.236;6.742;2023-05-24T00:39:48;96766.00;;;16.37;80.38
8699;BME280;4386;51.236;6.742;2023-05-24T00:40:52;96766.81;;;16.37;80.36
8699;BME280;4386;51.236;6.742;2023-05-24T00:41:57;96768.69;;;16.37;80.49
8699;BME280;4386;51.236;6.742;2023-05-24T00:43:00;96772.16;;;16.37;80.40
8699;BME280;4386;51.236;6.742;2023-05-24T00:44:03;96777.50;;;16.37;80.42
8699;BME280;4386;51.236;6.742;2023-05-24T00:45:07;96768.69;;;16.37;80.44
8699;BME280;4386;51.236;6.742;2023-05-24T00:46:15;96773.22;;;16.36;80.52
8699;BME280;4386;51.236;6.742;2023-05-24T00:47:20;96773.22;;;16.36;80.38
8699;BME280;4386;51.236;6.742;2023-05-24T00:48:24;96773.50;;;16.35;80.53
8699;BME280;4386;51.236;6.742;2023-05-24T00:49:29;96774.03;;;16.37;80.26
8699;BME280;4386;51.236;6.742;2023-05-24T00:50:32;96769.78;;;16.36;80.43
8699;BME280;4386;51.236;6.742;2023-05-24T00:51:36;96773.78;;;16.38;80.40
8699;BME280;4386;51.236;6.742;2023-05-24T00:52:41;96771.94;;;16.39;80.36
8699;BME280;4386;51.236;6.742;2023-05-24T00:53:47;96775.16;;;16.41;79.79
8699;BME280;4386;51.236;6.742;2023-05-24T00:54:50;96781.59;;;16.45;80.23
8699;BME280;4386;51.236;6.742;2023-05-24T00:55:54;96779.47;;;16.47;80.12
8699;BME280;4386;51.236;6.742;2023-05-24T00:56:56;96773.63;;;16.50;79.91
8699;BME280;4386;51.236;6.742;2023-05-24T00:58:01;96778.44;;;16.53;79.81
8699;BME280;4386;51.236;6.742;2023-05-24T00:59:03;96778.22;;;16.54;79.62
8699;BME280;4386;51.236;6.742;2023-05-24T01:00:08;96781.22;;;16.58;79.74
8699;BME280;4386;51.236;6.742;2023-05-24T01:01:15;96772.91;;;16.59;79.53
8699;BME280;4386;51.236;6.742;2023-05-24T01:02:19;96771.06;;;16.60;79.47
8699;BME280;4386;51.236;6.742;2023-05-24T01:03:22;96778.84;;;16.61;79.31
8699;BME280;4386;51.236;6.742;2023-05-24T01:04:26;96772.69;;;16.61;79.25
8699;BME280;4386;51.236;6.742;2023-05-24T01:05:29;96773.72;;;16.60;79.37
8699;BME280;4386;51.236;6.742;2023-05-24T01:06:39;96775.34;;;16.61;79.40
8699;BME280;4386;51.236;6.742;2023-05-24T01:07:54;96779.59;;;16.57;79.43
8699;BME280;4386;51.236;6.742;2023-05-24T01:09:16;96774.72;;;16.54;79.76
8699;BME280;4386;51.236;6.742;2023-05-24T01:10:31;96770.94;;;16.50;79.57
8699;BME280;4386;51.236;6.742;2023-05-24T01:11:44;96777.84;;;16.46;79.67
8699;BME280;4386;51.236;6.742;2023-05-24T01:12:56;96779.69;;;16.40;79.72
8699;BME280;4386;51.236;6.742;2023-05-24T01:14:10;96772.16;;;16.37;79.78
8699;BME280;4386;51.236;6.742;2023-05-24T01:15:23;96774.00;;;16.32;79.89
8699;BME280;4386;51.236;6.742;2023-05-24T01:16:32;96771.84;;;16.29;80.06
8699;BME280;4386;51.236;6.742;2023-05-24T01:17:44;96770.22;;;16.28;80.12
8699;BME280;4386;51.236;6.742;2023-05-24T01:18:53;96766.72;;;16.27;80.13
8699;BME280;4386;51.236;6.742;2023-05-24T01:19:59;96768.59;;;16.27;80.28
8699;BME280;4386;51.236;6.742;2023-05-24T01:21:14;96766.50;;;16.29;80.27
8699;BME280;4386;51.236;6.742;2023-05-24T01:22:31;96762.75;;;16.30;80.44
8699;BME280;4386;51.236;6.742;2023-05-24T01:23:46;96770.75;;;16.30;80.19
8699;BME280;4386;51.236;6.742;2023-05-24T01:25:01;96765.69;;;16.28;80.17
8699;BME280;4386;51.236;6.742;2023-05-24T01:26:19;96761.16;;;16.29;79.92
8699;BME280;4386;51.236;6.742;2023-05-24T01:27:25;96764.88;;;16.28;80.08
8699;BME280;4386;51.236;6.742;2023-05-24T01:28:28;96765.38;;;16.25;79.99
8699;BME280;4386;51.236;6.742;2023-05-24T01:29:35;96757.88;;;16.22;80.30
8699;BME280;4386;51.236;6.742;2023-05-24T01:30:38;96766.38;;;16.19;79.91
8699;BME280;4386;51.236;6.742;2023-05-24T01:31:42;96766.09;;;16.15;80.38
8699;BME280;4386;51.236;6.742;2023-05-24T01:32:45;96759.94;;;16.14;80.21
8699;BME280;4386;51.236;6.742;2023-05-24T01:33:49;96759.13;;;16.14;80.39
8699;BME280;4386;51.236;6.742;2023-05-24T01:34:52;96758.31;;;16.13;80.29
8699;BME280;4386;51.236;6.742;2023-05-24T01:35:55;96761.78;;;16.14;80.35
8699;BME280;4386;51.236;6.742;2023-05-24T01:36:58;96759.94;;;16.14;80.37
8699;BME280;4386;51.236;6.742;2023-05-24T01:38:01;96765.53;;;16.13;80.16
8699;BME280;4386;51.236;6.742;2023-05-24T01:39:04;96755.09;;;16.11;80.12
8699;BME280;4386;51.236;6.742;2023-05-24T01:40:08;96773.25;;;16.09;80.22
8699;BME280;4386;51.236;6.742;2023-05-24T01:41:21;96768.41;;;16.06;80.16
8699;BME280;4386;51.236;6.742;2023-05-24T01:42:41;96765.69;;;16.01;80.34
8699;BME280;4386;51.236;6.742;2023-05-24T01:43:52;96764.56;;;15.97;80.44
8699;BME280;4386;51.236;6.742;2023-05-24T01:45:05;96765.88;;;15.95;80.57
8699;BME280;4386;51.236;6.742;2023-05-24T01:46:13;96761.84;;;15.92;80.54
8699;BME280;4386;51.236;6.742;2023-05-24T01:47:27;96762.34;;;15.89;80.80
8699;BME280;4386;51.236;6.742;2023-05-24T01:48:37;96766.88;;;15.89;80.81
8699;BME280;4386;51.236;6.742;2023-05-24T01:49:49;96762.03;;;15.86;80.71
8699;BME280;4386;51.236;6.742;2023-05-24T01:50:54;96762.53;;;15.83;80.79
8699;BME280;4386;51.236;6.742;2023-05-24T01:52:02;96767.06;;;15.82;80.85
8699;BME280;4386;51.236;6.742;2023-05-24T01:53:08;96767.56;;;15.79;80.80
8699;BME280;4386;51.236;6.742;2023-05-24T01:54:19;96767.00;;;15.77;80.80
8699;BME280;4386;51.236;6.742;2023-05-24T01:55:22;96773.41;;;15.76;80.85
8699;BME280;4386;51.236;6.742;2023-05-24T01:56:26;96770.19;;;15.74;80.87
8699;BME280;4386;51.236;6.742;2023-05-24T01:57:33;96766.97;;;15.72;80.83
8699;BME280;4386;51.236;6.742;2023-05-24T01:58:38;96774.16;;;15.72;81.03
8699;BME280;4386;51.236;6.742;2023-05-24T01:59:43;96762.13;;;15.69;81.16
8699;BME280;4386;51.236;6.742;2023-05-24T02:00:48;96767.47;;;15.69;80.84
8699;BME280;4386;51.236;6.742;2023-05-24T02:01:50;96767.47;;;15.69;80.93
8699;BME280;4386;51.236;6.742;2023-05-24T02:02:54;96769.09;;;15.70;81.05
8699;BME280;4386;51.236;6.742;2023-05-24T02:03:58;96766.97;;;15.72;80.80
8699;BME280;4386;51.236;6.742;2023-05-24T02:05:02;96764.28;;;15.72;80.95
8699;BME280;4386;51.236;6.742;2023-05-24T02:06:05;96768.59;;;15.73;80.88
8699;BME280;4386;51.236;6.742;2023-05-24T02:07:09;96757.91;;;15.73;81.04
8699;BME280;4386;51.236;6.742;2023-05-24T02:08:11;96762.16;;;15.74;80.84
8699;BME280;4386;51.236;6.742;2023-05-24T02:09:15;96758.94;;;15.72;80.83
8699;BME280;4386;51.236;6.742;2023-05-24T02:10:17;96757.63;;;15.75;80.63
8699;BME280;4386;51.236;6.742;2023-05-24T02:11:21;96764.84;;;15.74;80.79
8699;BME280;4386;51.236;6.742;2023-05-24T02:12:24;96764.84;;;15.74;80.89
8699;BME280;4386;51.236;6.742;2023-05-24T02:13:28;96764.06;;;15.74;80.76
8699;BME280;4386;51.236;6.742;2023-05-24T02:14:31;96762.44;;;15.73;80.82
8699;BME280;4386;51.236;6.742;2023-05-24T02:15:34;96766.16;;;15.72;80.92
8699;BME280;4386;51.236;6.742;2023-05-24T02:16:38;96765.34;;;15.71;81.08
8699;BME280;4386;51.236;6.742;2023-05-24T02:17:43;96764.78;;;15.69;80.82
8699;BME280;4386;51.236;6.742;2023-05-24T02:18:47;96764.78;;;15.69;81.00
8699;BME280;4386;51.236;6.742;2023-05-24T02:19:51;96767.47;;;15.69;81.25
8699;BME280;4386;51.236;6.742;2023-05-24T02:20:54;96761.06;;;15.70;80.87
8699;BME280;4386;51.236;6.742;2023-05-24T02:21:58;96757.59;;;15.70;80.90
8699;BME280;4386;51.236;6.742;2023-05-24T02:23:00;96755.22;;;15.73;80.91
8699;BME280;4386;51.236;6.742;2023-05-24T02:24:04;96754.97;;;15.75;80.93
8699;BME280;4386;51.236;6.742;2023-05-24T02:25:08;96760.06;;;15.76;80.73
8699;BME280;4386;51.236;6.742;2023-05-24T02:26:11;96763.28;;;15.78;80.72
8699;BME280;4386;51.236;6.742;2023-05-24T02:27:15;96763.88;;;15.80;80.42
8699;BME280;4386;51.236;6.742;2023-05-24T02:28:18;96764.41;;;15.82;80.79
8699;BME280;4386;51.236;6.742;2023-05-24T02:29:22;96760.69;;;15.83;80.46
8699;BME280;4386;51.236;6.742;2023-05-24T02:30:26;96763.34;;;15.83;80.55
8699;BME280;4386;51.236;6.742;2023-05-24T02:31:29;96765.75;;;15.85;80.54
8699;BME280;4386;51.236;6.742;2023-05-24T02:32:33;96766.56;;;15.85;80.48
8699;BME280;4386;51.236;6.742;2023-05-24T02:33:46;96764.94;;;15.84;80.52
8699;BME280;4386;51.236;6.742;2023-05-24T02:34:49;96766.34;;;15.87;80.54
8699;BME280;4386;51.236;6.742;2023-05-24T02:35:52;96766.06;;;15.88;80.42
8699;BME280;4386;51.236;6.742;2023-05-24T02:36:56;96760.50;;;15.90;80.33
8699;BME280;4386;51.236;6.742;2023-05-24T02:37:58;96765.56;;;15.91;80.21
8699;BME280;4386;51.236;6.742;2023-05-24T02:39:02;96770.66;;;15.93;80.20
8699;BME280;4386;51.236;6.742;2023-05-24T02:40:06;96768.81;;;15.93;80.17
8699;BME280;4386;51.236;6.742;2023-05-24T02:41:09;96772.84;;;15.96;80.21
8699;BME280;4386;51.236;6.742;2023-05-24T02:42:18;96768.53;;;15.95;79.95
8699;BME280;4386;51.236;6.742;2023-05-24T02:43:22;96767.19;;;15.92;80.13
8699;BME280;4386;51.236;6.742;2023-05-24T02:44:26;96766.88;;;15.89;80.24
8699;BME280;4386;51.236;6.742;2023-05-24T02:45:30;96770.06;;;15.86;80.02
8699;BME280;4386;51.236;6.742;2023-05-24T02:46:33;96772.72;;;15.86;80.36
8699;BME280;4386;51.236;6.742;2023-05-24T02:47:37;96772.41;;;15.82;80.18
8699;BME280;4386;51.236;6.742;2023-05-24T02:48:39;96776.41;;;15.80;80.23
8699;BME280;4386;51.236;6.742;2023-05-24T02:49:43;96765.16;;;15.78;80.40
8699;BME280;4386;51.236;6.742;2023-05-24T02:50:45;96770.19;;;15.74;80.32
8699;BME280;4386;51.236;6.742;2023-05-24T02:51:49;96765.34;;;15.71;80.43
8699;BME280;4386;51.236;6.742;2023-05-24T02:52:53;96765.28;;;15.66;80.51
8699;BME280;4386;51.236;6.742;2023-05-24T02:53:56;96761.50;;;15.62;80.64
8699;BME280;4386;51.236;6.742;2023-05-24T02:54:58;96766.28;;;15.60;80.69
8699;BME280;4386;51.236;6.742;2023-05-24T02:56:02;96763.03;;;15.58;80.73
8699;BME280;4386;51.236;6.742;2023-05-24T02:57:04;96768.66;;;15.56;80.97
8699;BME280;4386;51.236;6.742;2023-05-24T02:58:08;96768.88;;;15.55;80.81
8699;BME280;4386;51.236;6.742;2023-05-24T02:59:11;96766.72;;;15.52;80.72
8699;BME280;4386;51.236;6.742;2023-05-24T03:00:23;96757.13;;;15.51;80.80
8699;BME280;4386;51.236;6.742;2023-05-24T03:01:33;96761.88;;;15.49;80.90
8699;BME280;4386;51.236;6.742;2023-05-24T03:02:41;96759.22;;;15.49;81.04
8699;BME280;4386;51.236;6.742;2023-05-24T03:03:54;96754.91;;;15.48;81.10
8699;BME280;4386;51.236;6.742;2023-05-24T03:05:03;96757.59;;;15.48;81.02
8699;BME280;4386;51.236;6.742;2023-05-24T03:06:12;96756.53;;;15.49;81.14
8699;BME280;4386;51.236;6.742;2023-05-24T03:07:19;96752.00;;;15.49;81.16
8699;BME280;4386;51.236;6.742;2023-05-24T03:08:27;96757.59;;;15.48;81.16
8699;BME280;4386;51.236;6.742;2023-05-24T03:09:34;96752.25;;;15.48;81.25
8699;BME280;4386;51.236;6.742;2023-05-24T03:10:43;96753.06;;;15.48;81.15
8699;BME280;4386;51.236;6.742;2023-05-24T03:11:52;96747.94;;;15.47;81.24
8699;BME280;4386;51.236;6.742;2023-05-24T03:13:01;96749.56;;;15.48;81.13
8699;BME280;4386;51.236;6.742;2023-05-24T03:14:05;96750.38;;;15.48;81.10
8699;BME280;4386;51.236;6.742;2023-05-24T03:15:08;96755.50;;;15.50;81.06
8699;BME280;4386;51.236;6.742;2023-05-24T03:16:14;96756.03;;;15.52;81.10
8699;BME280;4386;51.236;6.742;2023-05-24T03:17:18;96756.63;;;15.54;81.26
8699;BME280;4386;51.236;6.742;2023-05-24T03:18:22;96757.16;;;15.56;81.15
8699;BME280;4386;51.236;6.742;2023-05-24T03:19:24;96754.22;;;15.57;81.05
8699;BME280;4386;51.236;6.742;2023-05-24T03:20:28;96757.72;;;15.58;81.00
8699;BME280;4386;51.236;6.742;2023-05-24T03:21:30;96760.38;;;15.58;80.97
8699;BME280;4386;51.236;6.742;2023-05-24T03:22:34;96760.63;;;15.56;80.96
8699;BME280;4386;51.236;6.742;2023-05-24T03:23:36;96766.22;;;15.55;80.94
8699;BME280;4386;51.236;6.742;2023-05-24T03:24:40;96758.47;;;15.53;81.10
8699;BME280;4386;51.236;6.742;2023-05-24T03:25:42;96759.50;;;15.52;81.02
8699;BME280;4386;51.236;6.742;2023-05-24T03:26:46;96756.53;;;15.49;81.12
8699;BME280;4386;51.236;6.742;2023-05-24T03:27:48;96765.59;;;15.48;81.16
8699;BME280;4386;51.236;6.742;2023-05-24T03:28:52;96761.53;;;15.45;81.22
8699;BME280;4386;51.236;6.742;2023-05-24T03:29:55;96763.88;;;15.42;81.18
8699;BME280;4386;51.236;6.742;2023-05-24T03:30:59;96765.19;;;15.39;81.16
8699;BME280;4386;51.236;6.742;2023-05-24T03:32:03;96768.13;;;15.38;81.28
8699;BME280;4386;51.236;6.742;2023-05-24T03:33:06;96767.53;;;15.36;81.44
8699;BME280;4386;51.236;6.742;2023-05-24T03:34:09;96769.16;;;15.37;81.49
8699;BME280;4386;51.236;6.742;2023-05-24T03:35:12;96771.84;;;15.37;81.31
8699;BME280;4386;51.236;6.742;2023-05-24T03:36:15;96769.16;;;15.37;81.30
8699;BME280;4386;51.236;6.742;2023-05-24T03:37:19;96773.47;;;15.38;81.49
8699;BME280;4386;51.236;6.742;2023-05-24T03:38:21;96783.88;;;15.39;81.25
8699;BME280;4386;51.236;6.742;2023-05-24T03:39:24;96775.63;;;15.41;81.67
8699;BME280;4386;51.236;6.742;2023-05-24T03:40:27;96776.41;;;15.41;81.42
8699;BME280;4386;51.236;6.742;2023-05-24T03:41:33;96778.31;;;15.41;81.05
8699;BME280;4386;51.236;6.742;2023-05-24T03:42:36;96777.50;;;15.40;81.32
8699;BME280;4386;51.236;6.742;2023-05-24T03:43:40;96776.69;;;15.40;81.44
8699;BME280;4386;51.236;6.742;2023-05-24T03:44:42;96784.13;;;15.38;81.47
8699;BME280;4386;51.236;6.742;2023-05-24T03:45:46;96776.13;;;15.38;81.61
8699;BME280;4386;51.236;6.742;2023-05-24T03:46:49;96784.13;;;15.38;81.46
8699;BME280;4386;51.236;6.742;2023-05-24T03:47:53;96781.47;;;15.38;81.45
8699;BME280;4386;51.236;6.742;2023-05-24T03:48:56;96779.84;;;15.37;81.53
8699;BME280;4386;51.236;6.742;2023-05-24T03:49:59;96776.59;;;15.35;81.49
8699;BME280;4386;51.236;6.742;2023-05-24T03:51:02;96781.69;;;15.36;81.56
8699;BME280;4386;51.236;6.742;2023-05-24T03:52:06;96784.13;;;15.38;81.67
8699;BME280;4386;51.236;6.742;2023-05-24T03:53:09;96788.41;;;15.39;81.83
8699;BME280;4386;51.236;6.742;2023-05-24T03:54:12;96787.91;;;15.42;81.64
8699;BME280;4386;51.236;6.742;2023-05-24T03:55:14;96782.06;;;15.45;81.65
8699;BME280;4386;51.236;6.742;2023-05-24T03:56:18;96786.94;;;15.48;81.49
8699;BME280;4386;51.236;6.742;2023-05-24T03:57:20;96784.84;;;15.50;81.81
8699;BME280;4386;51.236;6.742;2023-05-24T03:58:24;96786.47;;;15.51;81.45
8699;BME280;4386;51.236;6.742;2023-05-24T03:59:27;96786.75;;;15.54;81.59
8699;BME280;4386;51.236;6.742;2023-05-24T04:00:31;96784.66;;;15.56;81.36
8699;BME280;4386;51.236;6.742;2023-05-24T04:01:34;96787.06;;;15.58;81.77
8699;BME280;4386;51.236;6.742;2023-05-24T04:02:38;96777.50;;;15.62;81.37
8699;BME280;4386;51.236;6.742;2023-05-24T04:03:42;96786.06;;;15.64;81.61
8699;BME280;4386;51.236;6.742;2023-05-24T04:04:47;96785.59;;;15.67;81.51
8699;BME280;4386;51.236;6.742;2023-05-24T04:05:49;96795.78;;;15.70;81.42
8699;BME280;4386;51.236;6.742;2023-05-24T04:06:53;96789.94;;;15.73;81.43
8699;BME280;4386;51.236;6.742;2023-05-24T04:07:57;96789.94;;;15.73;81.45
8699;BME280;4386;51.236;6.742;2023-05-24T04:09:00;96798.50;;;15.75;81.32
8699;BME280;4386;51.236;6.742;2023-05-24T04:10:04;96793.47;;;15.79;81.30
8699;BME280;4386;51.236;6.742;2023-05-24T04:11:09;96800.16;;;15.81;81.39
8699;BME280;4386;51.236;6.742;2023-05-24T04:12:12;96798.06;;;15.83;81.47
8699;BME280;4386;51.236;6.742;2023-05-24T04:13:15;96793.28;;;15.85;81.33
8699;BME280;4386;51.236;6.742;2023-05-24T04:14:17;96798.66;;;15.90;81.10
8699;BME280;4386;51.236;6.742;2023-05-24T04:15:21;96796.28;;;15.94;81.13
8699;BME280;4386;51.236;6.742;2023-05-24T04:16:25;96796.06;;;15.95;81.20
8699;BME280;4386;51.236;6.742;2023-05-24T04:17:29;96797.41;;;15.98;81.03
8699;BME280;4386;51.236;6.742;2023-05-24T04:18:36;96798.22;;;15.98;81.13
8699;BME280;4386;51.236;6.742;2023-05-24T04:19:41;96802.03;;;16.02;81.12
8699;BME280;4386;51.236;6.742;2023-05-24T04:20:43;96799.09;;;16.04;81.15
8699;BME280;4386;51.236;6.742;2023-05-24T04:21:46;96802.31;;;16.06;81.14
8699;BME280;4386;51.236;6.742;2023-05-24T04:22:49;96803.69;;;16.08;80.98
8699;BME280;4386;51.236;6.742;2023-05-24T04:23:53;96799.97;;;16.09;81.04
8699;BME280;4386;51.236;6.742;2023-05-24T04:24:57;96805.84;;;16.11;80.88
8699;BME280;4386;51.236;6.742;2023-05-24T04:26:00;96806.66;;;16.12;80.76
8699;BME280;4386;51.236;6.742;2023-05-24T04:27:03;96807.47;;;16.12;81.00
8699;BME280;4386;51.236;6.742;2023-05-24T04:28:06;96806.41;;;16.13;80.80
8699;BME280;4386;51.236;6.742;2023-05-24T04:29:10;96808.84;;;16.15;81.12
8699;BME280;4386;51.236;6.742;2023-05-24T04:30:14;96800.81;;;16.15;81.03
8699;BME280;4386;51.236;6.742;2023-05-24T04:31:17;96802.16;;;16.17;80.90
8699;BME280;4386;51.236;6.742;2023-05-24T04:32:21;96803.28;;;16.22;81.10
8699;BME280;4386;51.236;6.742;2023-05-24T04:33:24;96806.50;;;16.24;81.03
8699;BME280;4386;51.236;6.742;2023-05-24T04:34:28;96808.44;;;16.28;80.85
8699;BME280;4386;51.236;6.742;2023-05-24T04:35:36;96802.59;;;16.31;80.91
8699;BME280;4386;51.236;6.742;2023-05-24T04:36:41;96811.44;;;16.37;80.92
8699;BME280;4386;51.236;6.742;2023-05-24T04:37:46;96806.41;;;16.40;80.75
8699;BME280;4386;51.236;6.742;2023-05-24T04:38:52;96798.69;;;16.44;80.72
8699;BME280;4386;51.236;6.742;2023-05-24T04:39:54;96807.00;;;16.47;80.72
8699;BME280;4386;51.236;6.742;2023-05-24T04:40:58;96801.97;;;16.51;80.73
8699;BME280;4386;51.236;6.742;2023-05-24T04:42:03;96803.09;;;16.55;80.50
8699;BME280;4386;51.236;6.742;2023-05-24T04:43:06;96801.28;;;16.60;80.73
8699;BME280;4386;51.236;6.742;2023-05-24T04:44:11;96808.78;;;16.63;80.55
8699;BME280;4386;51.236;6.742;2023-05-24T04:45:15;96799.44;;;16.66;80.48
8699;BME280;4386;51.236;6.742;2023-05-24T04:46:18;96805.91;;;16.70;80.37
8699;BME280;4386;51.236;6.742;2023-05-24T04:47:21;96803.53;;;16.74;80.53
8699;BME280;4386;51.236;6.742;2023-05-24T04:48:25;96805.97;;;16.75;80.46
8699;BME280;4386;51.236;6.742;2023-05-24T04:49:27;96805.69;;;16.77;80.50
8699;BME280;4386;51.236;6.742;2023-05-24T04:50:30;96807.31;;;16.78;80.46
8699;BME280;4386;51.236;6.742;2023-05-24T04:51:37;96811.56;;;16.79;80.17
8699;BME280;4386;51.236;6.742;2023-05-24T04:52:41;96814.25;;;16.79;80.16
8699;BME280;4386;51.236;6.742;2023-05-24T04:53:44;96820.41;;;16.79;80.65
8699;BME280;4386;51.236;6.742;2023-05-24T04:54:47;96812.38;;;16.79;80.46
8699;BME280;4386;51.236;6.742;2023-05-24T04:55:52;96816.69;;;16.80;80.23
8699;BME280;4386;51.236;6.742;2023-05-24T04:56:55;96812.97;;;16.81;80.48
8699;BME280;4386;51.236;6.742;2023-05-24T04:57:58;96817.78;;;16.84;80.44
8699;BME280;4386;51.236;6.742;2023-05-24T04:59:01;96817.00;;;16.89;80.46
8699;BME280;4386;51.236;6.742;2023-05-24T05:00:06;96817.31;;;16.92;80.29
8699;BME280;4386;51.236;6.742;2023-05-24T05:01:12;96810.38;;;16.96;80.11
8699;BME280;4386;51.236;6.742;2023-05-24T05:02:16;96818.47;;;17.01;80.35
8699;BME280;4386;51.236;6.742;2023-05-24T05:03:20;96809.41;;;17.07;80.38
8699;BME280;4386;51.236;6.742;2023-05-24T05:04:23;96804.06;;;17.12;80.22
8699;BME280;4386;51.236;6.742;2023-05-24T05:05:26;96804.13;;;17.17;80.18
8699;BME280;4386;51.236;6.742;2023-05-24T05:06:29;96803.09;;;17.24;80.19
8699;BME280;4386;51.236;6.742;2023-05-24T05:07:34;96802.88;;;17.30;79.89
8699;BME280;4386;51.236;6.742;2023-05-24T05:08:37;96798.34;;;17.36;79.72
8699;BME280;4386;51.236;6.742;2023-05-24T05:09:39;96804.00;;;17.44;79.84
8699;BME280;4386;51.236;6.742;2023-05-24T05:10:43;96796.81;;;17.55;79.93
8699;BME280;4386;51.236;6.742;2023-05-24T05:11:45;96798.53;;;17.71;79.95
8699;BME280;4386;51.236;6.742;2023-05-24T05:12:49;96805.31;;;17.94;79.35
8699;BME280;4386;51.236;6.742;2023-05-24T05:13:52;96798.97;;;18.20;79.35
8699;BME280;4386;51.236;6.742;2023-05-24T05:14:56;96796.59;;;18.49;78.62
8699;BME280;4386;51.236;6.742;2023-05-24T05:15:59;96799.34;;;18.79;78.25
8699;BME280;4386;51.236;6.742;2023-05-24T05:17:03;96798.25;;;19.10;78.21
8699;BME280;4386;51.236;6.742;2023-05-24T05:18:05;96796.03;;;19.38;77.61
8699;BME280;4386;51.236;6.742;2023-05-24T05:19:09;96802.44;;;19.67;77.13
8699;BME280;4386;51.236;6.742;2023-05-24T05:20:12;96793.50;;;19.92;76.28
8699;BME280;4386;51.236;6.742;2023-05-24T05:21:15;96795.22;;;20.16;76.22
8699;BME280;4386;51.236;6.742;2023-05-24T05:22:18;96802.66;;;20.40;75.25
8699;BME280;4386;51.236;6.742;2023-05-24T05:23:23;96797.41;;;20.58;75.48
8699;BME280;4386;51.236;6.742;2023-05-24T05:24:26;96794.63;;;20.73;74.91
8699;BME280;4386;51.236;6.742;2023-05-24T05:25:29;96797.44;;;20.92;74.54
8699;BME280;4386;51.236;6.742;2023-05-24T05:26:32;96801.06;;;21.11;74.08
8699;BME280;4386;51.236;6.742;2023-05-24T05:27:36;96797.09;;;21.33;74.07
8699;BME280;4386;51.236;6.742;2023-05-24T05:28:39;96797.97;;;21.52;73.51
8699;BME280;4386;51.236;6.742;2023-05-24T05:29:42;96796.72;;;21.68;73.24
8699;BME280;4386;51.236;6.742;2023-05-24T05:30:45;96800.31;;;21.82;72.84
8699;BME280;4386;51.236;6.742;2023-05-24T05:31:48;96795.81;;;22.01;72.65
8699;BME280;4386;51.236;6.742;2023-05-24T05:32:50;96802.53;;;22.22;72.23
8699;BME280;4386;51.236;6.742;2023-05-24T05:33:54;96806.84;;;22.42;72.03
8699;BME280;4386;51.236;6.742;2023-05-24T05:34:57;96803.63;;;22.59;71.40
8699;BME280;4386;51.236;6.742;2023-05-24T05:36:00;96802.63;;;22.73;71.82
8699;BME280;4386;51.236;6.742;2023-05-24T05:37:03;96806.38;;;22.91;72.40
8699;BME280;4386;51.236;6.742;2023-05-24T05:38:06;96795.03;;;23.08;72.08
8699;BME280;4386;51.236;6.742;2023-05-24T05:39:10;96797.19;;;23.24;71.65
8699;BME280;4386;51.236;6.742;2023-05-24T05:40:14;96794.75;;;23.42;71.11
8699;BME280;4386;51.236;6.742;2023-05-24T05:41:16;96795.56;;;23.56;70.74
8699;BME280;4386;51.236;6.742;2023-05-24T05:42:20;96798.56;;;23.68;70.31
8699;BME280;4386;51.236;6.742;2023-05-24T05:43:23;96800.97;;;23.83;69.66
8699;BME280;4386;51.236;6.742;2023-05-24T05:44:26;96801.56;;;23.94;69.11
8699;BME280;4386;51.236;6.742;2023-05-24T05:45:30;96794.06;;;24.04;68.67
8699;BME280;4386;51.236;6.742;2023-05-24T05:46:33;96799.97;;;24.20;68.14
8699;BME280;4386;51.236;6.742;2023-05-24T05:47:35;96799.63;;;24.35;67.92
8699;BME280;4386;51.236;6.742;2023-05-24T05:48:39;96799.59;;;24.49;67.18
8699;BME280;4386;51.236;6.742;2023-05-24T05:49:41;96802.56;;;24.61;66.74
8699;BME280;4386;51.236;6.742;2023-05-24T05:50:45;96802.13;;;24.67;66.56
8699;BME280;4386;51.236;6.742;2023-05-24T05:51:47;96811.16;;;24.76;65.84
8699;BME280;4386;51.236;6.742;2023-05-24T05:52:51;96812.03;;;24.85;65.02
8699;BME280;4386;51.236;6.742;2023-05-24T05:53:53;96808.56;;;24.94;64.99